sensor_id;sensor_type;location;lat;lon;timestamp;P1;durP1;ratioP1;P2;durP2;ratioP2
68097;SDS011;54886;47.036;15.466;2022-10-16T00:01:14;36.05;;;24.52;;
68097;SDS011;54886;47.036;15.466;2022-10-16T00:03:41;31.75;;;22.95;;
68097;SDS011;54886;47.036;15.466;2022-10-16T00:06:08;34.92;;;24.35;;
68097;SDS011;54886;47.036;15.466;2022-10-16T00:08:35;35.58;;;23.95;;
68097;SDS011;54886;47.036;15.466;2022-10-16T00:11:02;36.88;;;24.55;;
68097;SDS011;54886;47.036;15.466;2022-10-16T00:13:32;41.00;;;24.55;;
68097;SDS011;54886;47.036;15.466;2022-10-16T00:15:59;37.20;;;22.73;;
68097;SDS011;54886;47.036;15.466;2022-10-16T00:18:26;36.63;;;24.92;;
68097;SDS011;54886;47.036;15.466;2022-10-16T00:20:53;47.20;;;27.20;;
68097;SDS011;54886;47.036;15.466;2022-10-16T00:23:19;46.28;;;27.70;;
68097;SDS011;54886;47.036;15.466;2022-10-16T00:25:45;39.03;;;24.55;;
68097;SDS011;54886;47.036;15.466;2022-10-16T00:28:18;34.60;;;24.02;;
68097;SDS011;54886;47.036;15.466;2022-10-16T00:30:44;45.00;;;26.35;;
68097;SDS011;54886;47.036;15.466;2022-10-16T00:33:09;42.50;;;25.40;;
68097;SDS011;54886;47.036;15.466;2022-10-16T00:35:34;41.15;;;25.33;;
68097;SDS011;54886;47.036;15.466;2022-10-16T00:38:00;41.63;;;27.00;;
68097;SDS011;54886;47.036;15.466;2022-10-16T00:40:25;52.13;;;27.35;;
68097;SDS011;54886;47.036;15.466;2022-10-16T00:42:51;42.90;;;26.05;;
68097;SDS011;54886;47.036;15.466;2022-10-16T00:45:16;52.72;;;28.60;;
68097;SDS011;54886;47.036;15.466;2022-10-16T00:47:43;37.85;;;24.75;;
68097;SDS011;54886;47.036;15.466;2022-10-16T00:50:18;47.42;;;26.85;;
68097;SDS011;54886;47.036;15.466;2022-10-16T00:52:51;44.30;;;26.42;;
68097;SDS011;54886;47.036;15.466;2022-10-16T00:55:17;48.20;;;28.00;;
68097;SDS011;54886;47.036;15.466;2022-10-16T00:57:44;51.88;;;28.58;;
68097;SDS011;54886;47.036;15.466;2022-10-16T01:00:12;54.03;;;29.80;;
68097;SDS011;54886;47.036;15.466;2022-10-16T01:02:40;44.83;;;27.90;;
68097;SDS011;54886;47.036;15.466;2022-10-16T01:05:06;45.45;;;28.83;;
68097;SDS011;54886;47.036;15.466;2022-10-16T01:12:59;48.60;;;27.92;;
68097;SDS011;54886;47.036;15.466;2022-10-16T01:15:30;44.30;;;26.60;;
68097;SDS011;54886;47.036;15.466;2022-10-16T01:20:44;42.08;;;27.40;;
68097;SDS011;54886;47.036;15.466;2022-10-16T01:25:58;45.70;;;27.42;;
68097;SDS011;54886;47.036;15.466;2022-10-16T01:28:49;45.72;;;27.17;;
68097;SDS011;54886;47.036;15.466;2022-10-16T01:31:21;42.72;;;25.67;;
68097;SDS011;54886;47.036;15.466;2022-10-16T01:34:32;44.03;;;26.10;;
68097;SDS011;54886;47.036;15.466;2022-10-16T01:36:53;43.92;;;25.90;;
68097;SDS011;54886;47.036;15.466;2022-10-16T01:39:28;42.42;;;26.73;;
68097;SDS011;54886;47.036;15.466;2022-10-16T01:41:58;38.53;;;24.83;;
68097;SDS011;54886;47.036;15.466;2022-10-16T01:44:34;45.30;;;26.98;;
68097;SDS011;54886;47.036;15.466;2022-10-16T01:47:02;44.65;;;26.67;;
68097;SDS011;54886;47.036;15.466;2022-10-16T01:49:30;44.50;;;27.05;;
68097;SDS011;54886;47.036;15.466;2022-10-16T01:51:58;47.03;;;27.73;;
68097;SDS011;54886;47.036;15.466;2022-10-16T01:54:27;45.28;;;27.10;;
68097;SDS011;54886;47.036;15.466;2022-10-16T01:56:56;43.50;;;27.67;;
68097;SDS011;54886;47.036;15.466;2022-10-16T01:59:23;44.45;;;27.83;;
68097;SDS011;54886;47.036;15.466;2022-10-16T02:01:54;51.08;;;27.15;;
68097;SDS011;54886;47.036;15.466;2022-10-16T02:04:24;45.95;;;28.00;;
68097;SDS011;54886;47.036;15.466;2022-10-16T02:06:54;50.90;;;27.73;;
68097;SDS011;54886;47.036;15.466;2022-10-16T02:09:20;45.08;;;27.00;;
68097;SDS011;54886;47.036;15.466;2022-10-16T02:11:45;45.33;;;26.65;;
68097;SDS011;54886;47.036;15.466;2022-10-16T02:14:11;40.45;;;25.63;;
68097;SDS011;54886;47.036;15.466;2022-10-16T02:16:44;40.75;;;23.95;;
68097;SDS011;54886;47.036;15.466;2022-10-16T02:19:14;41.28;;;26.15;;
68097;SDS011;54886;47.036;15.466;2022-10-16T02:27:11;35.47;;;23.38;;
68097;SDS011;54886;47.036;15.466;2022-10-16T02:29:43;34.20;;;22.27;;
68097;SDS011;54886;47.036;15.466;2022-10-16T02:32:16;33.35;;;23.38;;
68097;SDS011;54886;47.036;15.466;2022-10-16T02:34:46;38.65;;;24.05;;
68097;SDS011;54886;47.036;15.466;2022-10-16T02:37:14;35.08;;;23.45;;
68097;SDS011;54886;47.036;15.466;2022-10-16T02:39:41;35.47;;;22.95;;
68097;SDS011;54886;47.036;15.466;2022-10-16T02:42:13;35.42;;;23.88;;
68097;SDS011;54886;47.036;15.466;2022-10-16T02:44:39;35.80;;;24.08;;
68097;SDS011;54886;47.036;15.466;2022-10-16T02:47:05;43.03;;;25.48;;
68097;SDS011;54886;47.036;15.466;2022-10-16T02:49:31;39.28;;;25.40;;
68097;SDS011;54886;47.036;15.466;2022-10-16T02:51:56;42.40;;;25.80;;
68097;SDS011;54886;47.036;15.466;2022-10-16T02:54:21;39.50;;;26.50;;
68097;SDS011;54886;47.036;15.466;2022-10-16T02:56:47;39.15;;;26.55;;
68097;SDS011;54886;47.036;15.466;2022-10-16T02:59:12;41.13;;;26.95;;
68097;SDS011;54886;47.036;15.466;2022-10-16T03:01:38;44.08;;;29.17;;
68097;SDS011;54886;47.036;15.466;2022-10-16T03:04:03;42.42;;;27.33;;
68097;SDS011;54886;47.036;15.466;2022-10-16T03:06:28;36.03;;;25.27;;
68097;SDS011;54886;47.036;15.466;2022-10-16T03:08:54;41.72;;;26.85;;
68097;SDS011;54886;47.036;15.466;2022-10-16T03:11:19;39.75;;;27.55;;
68097;SDS011;54886;47.036;15.466;2022-10-16T03:13:45;49.92;;;27.33;;
68097;SDS011;54886;47.036;15.466;2022-10-16T03:16:10;38.13;;;26.67;;
68097;SDS011;54886;47.036;15.466;2022-10-16T03:18:35;45.72;;;27.70;;
68097;SDS011;54886;47.036;15.466;2022-10-16T03:21:01;39.95;;;27.30;;
68097;SDS011;54886;47.036;15.466;2022-10-16T03:23:26;46.85;;;28.25;;
68097;SDS011;54886;47.036;15.466;2022-10-16T03:25:52;44.10;;;26.77;;
68097;SDS011;54886;47.036;15.466;2022-10-16T03:28:17;42.30;;;26.45;;
68097;SDS011;54886;47.036;15.466;2022-10-16T03:30:43;39.10;;;26.05;;
68097;SDS011;54886;47.036;15.466;2022-10-16T03:33:09;46.30;;;26.77;;
68097;SDS011;54886;47.036;15.466;2022-10-16T03:35:34;41.60;;;26.13;;
68097;SDS011;54886;47.036;15.466;2022-10-16T03:37:59;33.28;;;24.63;;
68097;SDS011;54886;47.036;15.466;2022-10-16T03:40:25;37.25;;;25.30;;
68097;SDS011;54886;47.036;15.466;2022-10-16T03:42:50;37.90;;;24.17;;
68097;SDS011;54886;47.036;15.466;2022-10-16T03:45:16;38.92;;;26.20;;
68097;SDS011;54886;47.036;15.466;2022-10-16T03:47:41;35.85;;;24.98;;
68097;SDS011;54886;47.036;15.466;2022-10-16T03:50:07;30.65;;;22.35;;
68097;SDS011;54886;47.036;15.466;2022-10-16T03:52:33;33.05;;;23.63;;
68097;SDS011;54886;47.036;15.466;2022-10-16T03:54:58;36.78;;;23.52;;
68097;SDS011;54886;47.036;15.466;2022-10-16T03:57:24;37.00;;;25.30;;
68097;SDS011;54886;47.036;15.466;2022-10-16T03:59:49;35.58;;;24.85;;
68097;SDS011;54886;47.036;15.466;2022-10-16T04:02:15;30.52;;;21.88;;
68097;SDS011;54886;47.036;15.466;2022-10-16T04:04:41;39.42;;;23.90;;
68097;SDS011;54886;47.036;15.466;2022-10-16T04:07:06;35.20;;;23.90;;
68097;SDS011;54886;47.036;15.466;2022-10-16T04:09:31;35.05;;;24.58;;
68097;SDS011;54886;47.036;15.466;2022-10-16T04:11:57;35.03;;;24.48;;
68097;SDS011;54886;47.036;15.466;2022-10-16T04:14:22;35.80;;;23.50;;
68097;SDS011;54886;47.036;15.466;2022-10-16T04:16:48;37.00;;;23.52;;
68097;SDS011;54886;47.036;15.466;2022-10-16T04:19:13;35.28;;;23.10;;
68097;SDS011;54886;47.036;15.466;2022-10-16T04:21:38;31.33;;;23.85;;
68097;SDS011;54886;47.036;15.466;2022-10-16T04:24:04;31.45;;;22.17;;
68097;SDS011;54886;47.036;15.466;2022-10-16T04:26:29;29.02;;;21.95;;
68097;SDS011;54886;47.036;15.466;2022-10-16T04:28:55;29.85;;;22.35;;
68097;SDS011;54886;47.036;15.466;2022-10-16T04:31:21;33.13;;;22.45;;
68097;SDS011;54886;47.036;15.466;2022-10-16T04:33:46;38.65;;;23.65;;
68097;SDS011;54886;47.036;15.466;2022-10-16T04:36:12;31.30;;;22.77;;
68097;SDS011;54886;47.036;15.466;2022-10-16T04:38:38;30.77;;;22.30;;
68097;SDS011;54886;47.036;15.466;2022-10-16T04:41:04;28.75;;;21.60;;
68097;SDS011;54886;47.036;15.466;2022-10-16T04:43:30;30.70;;;22.48;;
68097;SDS011;54886;47.036;15.466;2022-10-16T04:45:56;34.58;;;23.63;;
68097;SDS011;54886;47.036;15.466;2022-10-16T04:48:21;30.75;;;22.27;;
68097;SDS011;54886;47.036;15.466;2022-10-16T04:50:47;29.50;;;21.90;;
68097;SDS011;54886;47.036;15.466;2022-10-16T04:53:13;30.30;;;22.13;;
68097;SDS011;54886;47.036;15.466;2022-10-16T04:55:38;29.88;;;22.63;;
68097;SDS011;54886;47.036;15.466;2022-10-16T04:58:04;30.58;;;23.00;;
68097;SDS011;54886;47.036;15.466;2022-10-16T05:00:30;32.63;;;22.13;;
68097;SDS011;54886;47.036;15.466;2022-10-16T05:02:56;31.15;;;22.85;;
68097;SDS011;54886;47.036;15.466;2022-10-16T05:05:24;31.58;;;23.25;;
68097;SDS011;54886;47.036;15.466;2022-10-16T05:07:50;31.98;;;22.67;;
68097;SDS011;54886;47.036;15.466;2022-10-16T05:10:16;29.10;;;21.10;;
68097;SDS011;54886;47.036;15.466;2022-10-16T05:12:42;31.60;;;23.63;;
68097;SDS011;54886;47.036;15.466;2022-10-16T05:15:07;35.13;;;24.63;;
68097;SDS011;54886;47.036;15.466;2022-10-16T05:17:33;33.65;;;23.30;;
68097;SDS011;54886;47.036;15.466;2022-10-16T05:19:58;31.92;;;23.38;;
68097;SDS011;54886;47.036;15.466;2022-10-16T05:22:24;30.60;;;22.80;;
68097;SDS011;54886;47.036;15.466;2022-10-16T05:24:50;33.00;;;23.88;;
68097;SDS011;54886;47.036;15.466;2022-10-16T05:27:15;32.58;;;23.70;;
68097;SDS011;54886;47.036;15.466;2022-10-16T05:29:44;30.00;;;21.85;;
68097;SDS011;54886;47.036;15.466;2022-10-16T05:32:12;26.92;;;20.65;;
68097;SDS011;54886;47.036;15.466;2022-10-16T05:34:38;31.10;;;22.15;;
68097;SDS011;54886;47.036;15.466;2022-10-16T05:37:03;29.23;;;20.67;;
68097;SDS011;54886;47.036;15.466;2022-10-16T05:39:29;29.50;;;22.60;;
68097;SDS011;54886;47.036;15.466;2022-10-16T05:41:54;28.70;;;21.35;;
68097;SDS011;54886;47.036;15.466;2022-10-16T05:44:19;29.23;;;21.55;;
68097;SDS011;54886;47.036;15.466;2022-10-16T05:46:45;32.47;;;23.90;;
68097;SDS011;54886;47.036;15.466;2022-10-16T05:49:11;36.47;;;24.35;;
68097;SDS011;54886;47.036;15.466;2022-10-16T05:51:37;34.08;;;24.35;;
68097;SDS011;54886;47.036;15.466;2022-10-16T05:54:02;35.25;;;24.23;;
68097;SDS011;54886;47.036;15.466;2022-10-16T05:56:27;31.13;;;22.85;;
68097;SDS011;54886;47.036;15.466;2022-10-16T05:58:53;35.15;;;23.70;;
68097;SDS011;54886;47.036;15.466;2022-10-16T06:01:19;35.72;;;23.20;;
68097;SDS011;54886;47.036;15.466;2022-10-16T06:03:45;38.63;;;23.27;;
68097;SDS011;54886;47.036;15.466;2022-10-16T06:06:12;38.00;;;25.27;;
68097;SDS011;54886;47.036;15.466;2022-10-16T06:08:40;33.58;;;24.15;;
68097;SDS011;54886;47.036;15.466;2022-10-16T06:11:10;38.33;;;25.73;;
68097;SDS011;54886;47.036;15.466;2022-10-16T06:13:37;35.08;;;24.90;;
68097;SDS011;54886;47.036;15.466;2022-10-16T06:16:04;33.83;;;23.90;;
68097;SDS011;54886;47.036;15.466;2022-10-16T06:18:30;32.90;;;24.02;;
68097;SDS011;54886;47.036;15.466;2022-10-16T06:20:56;28.77;;;22.13;;
68097;SDS011;54886;47.036;15.466;2022-10-16T06:23:22;32.72;;;23.00;;
68097;SDS011;54886;47.036;15.466;2022-10-16T06:25:48;30.92;;;22.10;;
68097;SDS011;54886;47.036;15.466;2022-10-16T06:28:13;35.22;;;21.92;;
68097;SDS011;54886;47.036;15.466;2022-10-16T06:30:39;32.65;;;21.65;;
68097;SDS011;54886;47.036;15.466;2022-10-16T06:33:05;28.90;;;21.58;;
68097;SDS011;54886;47.036;15.466;2022-10-16T06:35:30;31.95;;;22.77;;
68097;SDS011;54886;47.036;15.466;2022-10-16T06:37:57;29.80;;;22.60;;
68097;SDS011;54886;47.036;15.466;2022-10-16T06:40:22;40.08;;;22.13;;
68097;SDS011;54886;47.036;15.466;2022-10-16T06:42:48;28.45;;;20.80;;
68097;SDS011;54886;47.036;15.466;2022-10-16T06:45:13;30.10;;;21.25;;
68097;SDS011;54886;47.036;15.466;2022-10-16T06:47:38;35.20;;;20.65;;
68097;SDS011;54886;47.036;15.466;2022-10-16T06:50:04;32.97;;;21.00;;
68097;SDS011;54886;47.036;15.466;2022-10-16T06:52:32;34.50;;;20.77;;
68097;SDS011;54886;47.036;15.466;2022-10-16T06:54:58;35.08;;;21.13;;
68097;SDS011;54886;47.036;15.466;2022-10-16T06:57:23;29.70;;;20.65;;
68097;SDS011;54886;47.036;15.466;2022-10-16T06:59:48;29.58;;;19.92;;
68097;SDS011;54886;47.036;15.466;2022-10-16T07:02:14;29.35;;;20.58;;
68097;SDS011;54886;47.036;15.466;2022-10-16T07:04:39;26.08;;;20.33;;
68097;SDS011;54886;47.036;15.466;2022-10-16T07:07:05;28.67;;;19.45;;
68097;SDS011;54886;47.036;15.466;2022-10-16T07:09:30;28.10;;;20.52;;
68097;SDS011;54886;47.036;15.466;2022-10-16T07:11:56;28.05;;;20.70;;
68097;SDS011;54886;47.036;15.466;2022-10-16T07:14:21;25.00;;;19.58;;
68097;SDS011;54886;47.036;15.466;2022-10-16T07:16:47;25.30;;;18.77;;
68097;SDS011;54886;47.036;15.466;2022-10-16T07:19:13;24.40;;;19.20;;
68097;SDS011;54886;47.036;15.466;2022-10-16T07:21:40;25.23;;;18.77;;
68097;SDS011;54886;47.036;15.466;2022-10-16T07:24:10;24.85;;;19.13;;
68097;SDS011;54886;47.036;15.466;2022-10-16T07:26:37;26.25;;;19.77;;
68097;SDS011;54886;47.036;15.466;2022-10-16T07:29:04;25.75;;;18.67;;
68097;SDS011;54886;47.036;15.466;2022-10-16T07:31:31;24.88;;;19.35;;
68097;SDS011;54886;47.036;15.466;2022-10-16T07:33:57;27.30;;;20.67;;
68097;SDS011;54886;47.036;15.466;2022-10-16T07:36:23;27.75;;;20.95;;
68097;SDS011;54886;47.036;15.466;2022-10-16T07:38:49;28.15;;;20.65;;
68097;SDS011;54886;47.036;15.466;2022-10-16T07:41:15;27.52;;;21.75;;
68097;SDS011;54886;47.036;15.466;2022-10-16T07:43:46;28.17;;;21.17;;
68097;SDS011;54886;47.036;15.466;2022-10-16T07:46:12;30.55;;;21.42;;
68097;SDS011;54886;47.036;15.466;2022-10-16T07:48:38;30.40;;;22.85;;
68097;SDS011;54886;47.036;15.466;2022-10-16T07:51:05;29.42;;;20.83;;
68097;SDS011;54886;47.036;15.466;2022-10-16T07:53:31;32.35;;;22.73;;
68097;SDS011;54886;47.036;15.466;2022-10-16T07:55:58;32.33;;;22.88;;
68097;SDS011;54886;47.036;15.466;2022-10-16T07:58:25;32.95;;;22.13;;
68097;SDS011;54886;47.036;15.466;2022-10-16T08:00:51;33.58;;;23.63;;
68097;SDS011;54886;47.036;15.466;2022-10-16T08:03:16;31.92;;;22.88;;
68097;SDS011;54886;47.036;15.466;2022-10-16T08:05:42;29.55;;;21.98;;
68097;SDS011;54886;47.036;15.466;2022-10-16T08:08:11;31.40;;;22.90;;
68097;SDS011;54886;47.036;15.466;2022-10-16T08:10:38;30.00;;;21.83;;
68097;SDS011;54886;47.036;15.466;2022-10-16T08:13:04;29.98;;;21.02;;
68097;SDS011;54886;47.036;15.466;2022-10-16T08:15:29;30.88;;;22.70;;
68097;SDS011;54886;47.036;15.466;2022-10-16T08:17:59;30.10;;;20.67;;
68097;SDS011;54886;47.036;15.466;2022-10-16T08:20:26;34.55;;;22.88;;
68097;SDS011;54886;47.036;15.466;2022-10-16T08:22:53;30.08;;;22.42;;
68097;SDS011;54886;47.036;15.466;2022-10-16T08:25:19;31.27;;;23.00;;
68097;SDS011;54886;47.036;15.466;2022-10-16T08:27:46;32.58;;;24.52;;
68097;SDS011;54886;47.036;15.466;2022-10-16T08:30:11;31.65;;;22.60;;
68097;SDS011;54886;47.036;15.466;2022-10-16T08:32:36;34.17;;;24.77;;
68097;SDS011;54886;47.036;15.466;2022-10-16T08:35:02;34.38;;;24.25;;
68097;SDS011;54886;47.036;15.466;2022-10-16T08:37:31;37.10;;;24.80;;
68097;SDS011;54886;47.036;15.466;2022-10-16T08:39:57;38.13;;;25.15;;
68097;SDS011;54886;47.036;15.466;2022-10-16T08:45:08;35.60;;;25.80;;
68097;SDS011;54886;47.036;15.466;2022-10-16T08:50:14;36.33;;;25.48;;
68097;SDS011;54886;47.036;15.466;2022-10-16T08:52:46;36.22;;;25.70;;
68097;SDS011;54886;47.036;15.466;2022-10-16T08:57:55;35.88;;;24.70;;
68097;SDS011;54886;47.036;15.466;2022-10-16T09:00:21;35.05;;;25.48;;
68097;SDS011;54886;47.036;15.466;2022-10-16T09:02:56;33.25;;;23.15;;
68097;SDS011;54886;47.036;15.466;2022-10-16T09:08:46;34.53;;;24.40;;
68097;SDS011;54886;47.036;15.466;2022-10-16T09:16:35;35.55;;;24.67;;
68097;SDS011;54886;47.036;15.466;2022-10-16T09:22:21;34.08;;;23.35;;
68097;SDS011;54886;47.036;15.466;2022-10-16T09:24:50;37.00;;;24.52;;
68097;SDS011;54886;47.036;15.466;2022-10-16T09:27:15;37.35;;;23.98;;
68097;SDS011;54886;47.036;15.466;2022-10-16T09:29:41;35.17;;;23.70;;
68097;SDS011;54886;47.036;15.466;2022-10-16T09:32:14;36.03;;;24.33;;
68097;SDS011;54886;47.036;15.466;2022-10-16T09:34:45;34.92;;;23.77;;
68097;SDS011;54886;47.036;15.466;2022-10-16T09:37:16;33.95;;;24.42;;
68097;SDS011;54886;47.036;15.466;2022-10-16T09:39:50;35.15;;;22.70;;
68097;SDS011;54886;47.036;15.466;2022-10-16T09:42:22;33.42;;;23.23;;
68097;SDS011;54886;47.036;15.466;2022-10-16T09:44:51;35.28;;;23.23;;
68097;SDS011;54886;47.036;15.466;2022-10-16T09:47:19;31.77;;;22.77;;
68097;SDS011;54886;47.036;15.466;2022-10-16T09:52:30;31.83;;;21.55;;
68097;SDS011;54886;47.036;15.466;2022-10-16T09:54:57;28.08;;;19.50;;
68097;SDS011;54886;47.036;15.466;2022-10-16T09:57:25;31.08;;;22.05;;
68097;SDS011;54886;47.036;15.466;2022-10-16T09:59:51;30.42;;;20.95;;
68097;SDS011;54886;47.036;15.466;2022-10-16T10:04:55;32.65;;;20.05;;
68097;SDS011;54886;47.036;15.466;2022-10-16T10:07:28;30.00;;;20.83;;
68097;SDS011;54886;47.036;15.466;2022-10-16T10:10:00;30.52;;;19.33;;
68097;SDS011;54886;47.036;15.466;2022-10-16T10:12:29;31.85;;;20.35;;
68097;SDS011;54886;47.036;15.466;2022-10-16T10:15:04;35.45;;;19.55;;
68097;SDS011;54886;47.036;15.466;2022-10-16T10:17:46;30.95;;;19.48;;
68097;SDS011;54886;47.036;15.466;2022-10-16T10:20:27;28.17;;;19.45;;
68097;SDS011;54886;47.036;15.466;2022-10-16T10:22:55;30.52;;;19.50;;
68097;SDS011;54886;47.036;15.466;2022-10-16T10:25:45;30.27;;;20.10;;
68097;SDS011;54886;47.036;15.466;2022-10-16T10:29:21;29.55;;;19.52;;
68097;SDS011;54886;47.036;15.466;2022-10-16T10:45:47;26.55;;;17.73;;
68097;SDS011;54886;47.036;15.466;2022-10-16T10:48:21;28.58;;;18.73;;
68097;SDS011;54886;47.036;15.466;2022-10-16T10:56:36;24.05;;;16.65;;
68097;SDS011;54886;47.036;15.466;2022-10-16T11:01:55;26.20;;;15.55;;
68097;SDS011;54886;47.036;15.466;2022-10-16T11:04:34;22.48;;;14.73;;
68097;SDS011;54886;47.036;15.466;2022-10-16T11:07:13;23.25;;;15.00;;
68097;SDS011;54886;47.036;15.466;2022-10-16T11:09:44;24.00;;;15.27;;
68097;SDS011;54886;47.036;15.466;2022-10-16T11:12:17;21.98;;;15.52;;
68097;SDS011;54886;47.036;15.466;2022-10-16T11:14:48;22.70;;;15.50;;
68097;SDS011;54886;47.036;15.466;2022-10-16T11:17:18;23.70;;;15.65;;
68097;SDS011;54886;47.036;15.466;2022-10-16T11:19:55;21.42;;;14.77;;
68097;SDS011;54886;47.036;15.466;2022-10-16T11:25:41;21.85;;;14.45;;
68097;SDS011;54886;47.036;15.466;2022-10-16T11:28:11;23.10;;;14.27;;
68097;SDS011;54886;47.036;15.466;2022-10-16T11:36:19;22.10;;;14.32;;
68097;SDS011;54886;47.036;15.466;2022-10-16T11:41:45;20.67;;;14.25;;
68097;SDS011;54886;47.036;15.466;2022-10-16T11:49:32;19.60;;;12.73;;
68097;SDS011;54886;47.036;15.466;2022-10-16T11:52:07;21.60;;;13.48;;
68097;SDS011;54886;47.036;15.466;2022-10-16T11:57:13;20.10;;;12.45;;
68097;SDS011;54886;47.036;15.466;2022-10-16T11:59:44;17.50;;;12.50;;
68097;SDS011;54886;47.036;15.466;2022-10-16T12:05:00;18.10;;;12.50;;
68097;SDS011;54886;47.036;15.466;2022-10-16T12:07:32;17.20;;;12.40;;
68097;SDS011;54886;47.036;15.466;2022-10-16T12:12:59;17.35;;;12.55;;
68097;SDS011;54886;47.036;15.466;2022-10-16T12:15:28;22.00;;;13.75;;
68097;SDS011;54886;47.036;15.466;2022-10-16T12:17:55;21.23;;;13.23;;
68097;SDS011;54886;47.036;15.466;2022-10-16T12:20:27;20.50;;;13.90;;
68097;SDS011;54886;47.036;15.466;2022-10-16T12:25:38;18.75;;;12.93;;
68097;SDS011;54886;47.036;15.466;2022-10-16T12:30:39;17.67;;;13.25;;
68097;SDS011;54886;47.036;15.466;2022-10-16T12:33:15;19.30;;;13.80;;
68097;SDS011;54886;47.036;15.466;2022-10-16T12:35:46;21.20;;;13.45;;
68097;SDS011;54886;47.036;15.466;2022-10-16T12:38:24;19.90;;;14.25;;
68097;SDS011;54886;47.036;15.466;2022-10-16T12:41:02;20.05;;;13.77;;
68097;SDS011;54886;47.036;15.466;2022-10-16T12:46:20;19.98;;;13.77;;
68097;SDS011;54886;47.036;15.466;2022-10-16T12:48:48;19.30;;;14.05;;
68097;SDS011;54886;47.036;15.466;2022-10-16T12:51:22;20.70;;;13.68;;
68097;SDS011;54886;47.036;15.466;2022-10-16T12:53:58;21.05;;;13.60;;
68097;SDS011;54886;47.036;15.466;2022-10-16T12:57:09;22.95;;;13.80;;
68097;SDS011;54886;47.036;15.466;2022-10-16T13:10:15;18.23;;;12.80;;
68097;SDS011;54886;47.036;15.466;2022-10-16T13:15:52;18.10;;;13.15;;
68097;SDS011;54886;47.036;15.466;2022-10-16T13:18:54;19.30;;;12.82;;
68097;SDS011;54886;47.036;15.466;2022-10-16T13:21:54;19.95;;;13.02;;
68097;SDS011;54886;47.036;15.466;2022-10-16T13:27:27;19.77;;;11.82;;
68097;SDS011;54886;47.036;15.466;2022-10-16T13:30:12;18.20;;;12.80;;
68097;SDS011;54886;47.036;15.466;2022-10-16T13:32:43;18.90;;;12.27;;
68097;SDS011;54886;47.036;15.466;2022-10-16T13:35:21;21.88;;;14.27;;
68097;SDS011;54886;47.036;15.466;2022-10-16T13:38:02;20.63;;;13.25;;
68097;SDS011;54886;47.036;15.466;2022-10-16T13:40:47;20.27;;;13.95;;
68097;SDS011;54886;47.036;15.466;2022-10-16T13:43:31;20.05;;;13.70;;
68097;SDS011;54886;47.036;15.466;2022-10-16T13:46:13;19.73;;;13.98;;
68097;SDS011;54886;47.036;15.466;2022-10-16T13:48:59;18.58;;;13.60;;
68097;SDS011;54886;47.036;15.466;2022-10-16T13:51:27;18.40;;;13.63;;
68097;SDS011;54886;47.036;15.466;2022-10-16T13:53:53;20.05;;;14.55;;
68097;SDS011;54886;47.036;15.466;2022-10-16T13:56:21;18.70;;;13.55;;
68097;SDS011;54886;47.036;15.466;2022-10-16T13:59:02;19.65;;;13.77;;
68097;SDS011;54886;47.036;15.466;2022-10-16T14:01:34;19.85;;;13.10;;
68097;SDS011;54886;47.036;15.466;2022-10-16T14:04:09;18.58;;;13.18;;
68097;SDS011;54886;47.036;15.466;2022-10-16T14:06:39;19.00;;;13.45;;
68097;SDS011;54886;47.036;15.466;2022-10-16T14:09:07;18.85;;;13.60;;
68097;SDS011;54886;47.036;15.466;2022-10-16T14:11:43;17.13;;;12.70;;
68097;SDS011;54886;47.036;15.466;2022-10-16T14:14:13;18.33;;;13.05;;
68097;SDS011;54886;47.036;15.466;2022-10-16T14:16:40;19.35;;;12.82;;
68097;SDS011;54886;47.036;15.466;2022-10-16T14:21:47;21.33;;;13.35;;
68097;SDS011;54886;47.036;15.466;2022-10-16T14:24:21;17.50;;;13.50;;
68097;SDS011;54886;47.036;15.466;2022-10-16T14:26:56;18.75;;;13.02;;
68097;SDS011;54886;47.036;15.466;2022-10-16T14:29:23;19.35;;;13.90;;
68097;SDS011;54886;47.036;15.466;2022-10-16T14:31:56;23.13;;;13.38;;
68097;SDS011;54886;47.036;15.466;2022-10-16T14:34:27;18.90;;;13.98;;
68097;SDS011;54886;47.036;15.466;2022-10-16T14:36:58;20.92;;;13.77;;
68097;SDS011;54886;47.036;15.466;2022-10-16T14:39:27;22.42;;;13.30;;
68097;SDS011;54886;47.036;15.466;2022-10-16T14:41:55;18.80;;;13.40;;
68097;SDS011;54886;47.036;15.466;2022-10-16T14:44:25;18.30;;;13.60;;
68097;SDS011;54886;47.036;15.466;2022-10-16T14:46:54;18.80;;;13.55;;
68097;SDS011;54886;47.036;15.466;2022-10-16T14:49:20;19.95;;;14.15;;
68097;SDS011;54886;47.036;15.466;2022-10-16T14:51:47;24.35;;;14.77;;
68097;SDS011;54886;47.036;15.466;2022-10-16T14:54:13;22.40;;;15.60;;
68097;SDS011;54886;47.036;15.466;2022-10-16T14:59:17;22.95;;;16.55;;
68097;SDS011;54886;47.036;15.466;2022-10-16T15:04:53;22.67;;;17.10;;
68097;SDS011;54886;47.036;15.466;2022-10-16T15:07:19;24.83;;;17.20;;
68097;SDS011;54886;47.036;15.466;2022-10-16T15:09:44;24.48;;;17.10;;
68097;SDS011;54886;47.036;15.466;2022-10-16T15:12:10;22.50;;;16.85;;
68097;SDS011;54886;47.036;15.466;2022-10-16T15:14:35;24.63;;;16.90;;
68097;SDS011;54886;47.036;15.466;2022-10-16T15:17:00;28.58;;;17.75;;
68097;SDS011;54886;47.036;15.466;2022-10-16T15:19:26;24.95;;;18.08;;
68097;SDS011;54886;47.036;15.466;2022-10-16T15:21:52;24.23;;;17.33;;
68097;SDS011;54886;47.036;15.466;2022-10-16T15:24:17;26.88;;;18.63;;
68097;SDS011;54886;47.036;15.466;2022-10-16T15:26:43;24.38;;;18.40;;
68097;SDS011;54886;47.036;15.466;2022-10-16T15:31:36;25.13;;;17.92;;
68097;SDS011;54886;47.036;15.466;2022-10-16T15:34:02;24.73;;;18.38;;
68097;SDS011;54886;47.036;15.466;2022-10-16T15:36:30;24.00;;;18.00;;
68097;SDS011;54886;47.036;15.466;2022-10-16T15:38:59;26.85;;;18.45;;
68097;SDS011;54886;47.036;15.466;2022-10-16T15:41:25;26.60;;;18.90;;
68097;SDS011;54886;47.036;15.466;2022-10-16T15:43:50;24.50;;;17.98;;
68097;SDS011;54886;47.036;15.466;2022-10-16T15:46:20;23.55;;;17.95;;
68097;SDS011;54886;47.036;15.466;2022-10-16T15:48:47;25.75;;;18.85;;
68097;SDS011;54886;47.036;15.466;2022-10-16T15:51:14;25.13;;;17.98;;
68097;SDS011;54886;47.036;15.466;2022-10-16T15:53:39;28.00;;;19.45;;
68097;SDS011;54886;47.036;15.466;2022-10-16T15:56:05;25.88;;;18.23;;
68097;SDS011;54886;47.036;15.466;2022-10-16T15:58:32;24.45;;;18.77;;
68097;SDS011;54886;47.036;15.466;2022-10-16T16:00:59;26.25;;;17.88;;
68097;SDS011;54886;47.036;15.466;2022-10-16T16:05:52;25.55;;;17.75;;
68097;SDS011;54886;47.036;15.466;2022-10-16T16:08:17;25.20;;;17.75;;
68097;SDS011;54886;47.036;15.466;2022-10-16T16:10:43;25.17;;;18.00;;
68097;SDS011;54886;47.036;15.466;2022-10-16T16:13:08;22.27;;;17.05;;
68097;SDS011;54886;47.036;15.466;2022-10-16T16:15:33;24.83;;;17.67;;
68097;SDS011;54886;47.036;15.466;2022-10-16T16:17:59;23.98;;;18.45;;
68097;SDS011;54886;47.036;15.466;2022-10-16T16:20:26;25.55;;;18.10;;
68097;SDS011;54886;47.036;15.466;2022-10-16T16:22:52;25.50;;;18.52;;
68097;SDS011;54886;47.036;15.466;2022-10-16T16:25:17;23.52;;;17.58;;